PWSweather.com
Personal Weather Stations
Station Observations
IMAZOWIE6
WarszawaPL

WarszawaPL

Lat: 52.27957, Lon: 21.05489

Elevation: 100

Station Type: WS1080

http://stacjapogody.waw.pl/

High Low Average
Temperature 40.3°F4.6°C 32.9°F0.5°C 36.7°F2.6°C
Dew Point -168.8°F-111.6°C -169.5°F-111.9°C -169.1°F-111.7°C
Winds 2.0 mph 3.2 kmh Calm Calm Calm NCalm N
Wind Gusts 3.4 mph5.5 kmh -- 1.0 mph1.6 kmh
Humidity - - -
Pressure 29.77 in1008.1 mb 29.42 in996.3 mb -
Precipitation 0.00 in0.0 mm - -
Hour Temp Dew Point Humidity Winds Wind Gusts Pressure Precip Precip Rate Daily Precip Total
12:01 AM 36.7°F2.6°C -169.1°F-111.7°C - Calm Calm 2.0 mph3.2 kmh 29.42 in996.3 mb 0.00 in0.0 mm 0.00 in0.0 mm 0.00 in0.0 mm
12:16 AM 36.7°F2.6°C -169.1°F-111.7°C - 0.6 mph N1.0 kmh N 2.0 mph3.2 kmh 29.42 in996.3 mb 0.00 in0.0 mm 0.00 in0.0 mm 0.00 in0.0 mm
12:31 AM 36.9°F2.7°C -169.1°F-111.7°C - Calm Calm 1.4 mph2.3 kmh 29.42 in996.3 mb 0.00 in0.0 mm 0.00 in0.0 mm 0.00 in0.0 mm
12:46 AM 36.9°F2.7°C -169.1°F-111.7°C - 0.6 mph N1.0 kmh N 2.0 mph3.2 kmh 29.43 in996.6 mb 0.00 in0.0 mm 0.00 in0.0 mm 0.00 in0.0 mm
01:01 AM 37.0°F2.8°C -169.1°F-111.7°C - 0.6 mph N1.0 kmh N 2.0 mph3.2 kmh 29.43 in996.6 mb 0.00 in0.0 mm 0.00 in0.0 mm 0.00 in0.0 mm
01:16 AM 36.9°F2.7°C -169.1°F-111.7°C - 0.6 mph N1.0 kmh N 2.0 mph3.2 kmh 29.44 in997.0 mb 0.00 in0.0 mm 0.00 in0.0 mm 0.00 in0.0 mm
01:31 AM 36.7°F2.6°C -169.1°F-111.7°C - 0.6 mph N1.0 kmh N 2.0 mph3.2 kmh 29.44 in997.0 mb 0.00 in0.0 mm 0.00 in0.0 mm 0.00 in0.0 mm
01:46 AM 36.7°F2.6°C -169.1°F-111.7°C - 0.6 mph N1.0 kmh N 1.4 mph2.3 kmh 29.44 in997.0 mb 0.00 in0.0 mm 0.00 in0.0 mm 0.00 in0.0 mm
02:01 AM 36.5°F2.5°C -169.2°F-111.8°C - Calm Calm 1.4 mph2.3 kmh 29.44 in997.0 mb 0.00 in0.0 mm 0.00 in0.0 mm 0.00 in0.0 mm
02:16 AM 36.5°F2.5°C -169.2°F-111.8°C - 1.4 mph N2.3 kmh N 3.4 mph5.5 kmh 29.44 in997.0 mb 0.00 in0.0 mm 0.00 in0.0 mm 0.00 in0.0 mm
02:31 AM 36.5°F2.5°C -169.2°F-111.8°C - Calm Calm 2.0 mph3.2 kmh 29.45 in997.3 mb 0.00 in0.0 mm 0.00 in0.0 mm 0.00 in0.0 mm
02:46 AM 36.5°F2.5°C -169.2°F-111.8°C - 1.4 mph N2.3 kmh N 2.8 mph4.5 kmh 29.45 in997.3 mb 0.00 in0.0 mm 0.00 in0.0 mm 0.00 in0.0 mm
03:01 AM 36.3°F2.4°C -169.2°F-111.8°C - Calm Calm 1.4 mph2.3 kmh 29.46 in997.6 mb 0.00 in0.0 mm 0.00 in0.0 mm 0.00 in0.0 mm
03:16 AM 36.0°F2.2°C -169.2°F-111.8°C - 0.6 mph N1.0 kmh N 2.0 mph3.2 kmh 29.46 in997.6 mb 0.00 in0.0 mm 0.00 in0.0 mm 0.00 in0.0 mm
03:31 AM 35.8°F2.1°C -169.2°F-111.8°C - Calm Calm 2.0 mph3.2 kmh 29.46 in997.6 mb 0.00 in0.0 mm 0.00 in0.0 mm 0.00 in0.0 mm
03:46 AM 35.6°F2.0°C -169.2°F-111.8°C - Calm Calm 1.4 mph2.3 kmh 29.47 in998.0 mb 0.00 in0.0 mm 0.00 in0.0 mm 0.00 in0.0 mm
04:01 AM 35.6°F2.0°C -169.2°F-111.8°C - Calm Calm 1.4 mph2.3 kmh 29.47 in998.0 mb 0.00 in0.0 mm 0.00 in0.0 mm 0.00 in0.0 mm
04:16 AM 35.4°F1.9°C -169.3°F-111.8°C - Calm Calm 1.4 mph2.3 kmh 29.48 in998.3 mb 0.00 in0.0 mm 0.00 in0.0 mm 0.00 in0.0 mm
04:31 AM 35.8°F2.1°C -169.2°F-111.8°C - Calm Calm 1.4 mph2.3 kmh 29.49 in998.6 mb 0.00 in0.0 mm 0.00 in0.0 mm 0.00 in0.0 mm
04:46 AM 36.0°F2.2°C -169.2°F-111.8°C - Calm Calm 1.4 mph2.3 kmh 29.49 in998.6 mb 0.00 in0.0 mm 0.00 in0.0 mm 0.00 in0.0 mm
05:01 AM 36.0°F2.2°C -169.2°F-111.8°C - Calm Calm 2.0 mph3.2 kmh 29.49 in998.6 mb 0.00 in0.0 mm 0.00 in0.0 mm 0.00 in0.0 mm
05:16 AM 36.0°F2.2°C -169.2°F-111.8°C - 0.6 mph N1.0 kmh N 1.4 mph2.3 kmh 29.50 in999.0 mb 0.00 in0.0 mm 0.00 in0.0 mm 0.00 in0.0 mm
05:31 AM 36.0°F2.2°C -169.2°F-111.8°C - 0.6 mph N1.0 kmh N 2.0 mph3.2 kmh 29.51 in999.3 mb 0.00 in0.0 mm 0.00 in0.0 mm 0.00 in0.0 mm
05:46 AM 36.1°F2.3°C -169.2°F-111.8°C - 2.0 mph N3.2 kmh N 3.4 mph5.5 kmh 29.52 in999.7 mb 0.00 in0.0 mm 0.00 in0.0 mm 0.00 in0.0 mm
06:01 AM 36.1°F2.3°C -169.2°F-111.8°C - 0.6 mph N1.0 kmh N 2.0 mph3.2 kmh 29.52 in999.7 mb 0.00 in0.0 mm 0.00 in0.0 mm 0.00 in0.0 mm
06:16 AM 36.1°F2.3°C -169.2°F-111.8°C - 0.6 mph N1.0 kmh N 2.8 mph4.5 kmh 29.53 in1000.0 mb 0.00 in0.0 mm 0.00 in0.0 mm 0.00 in0.0 mm
06:31 AM 36.1°F2.3°C -169.2°F-111.8°C - 0.6 mph N1.0 kmh N 2.0 mph3.2 kmh 29.54 in1000.3 mb 0.00 in0.0 mm 0.00 in0.0 mm 0.00 in0.0 mm
06:46 AM 36.0°F2.2°C -169.2°F-111.8°C - 0.6 mph N1.0 kmh N 2.8 mph4.5 kmh 29.53 in1000.0 mb 0.00 in0.0 mm 0.00 in0.0 mm 0.00 in0.0 mm
07:01 AM 36.0°F2.2°C -169.2°F-111.8°C - 1.4 mph N2.3 kmh N 2.8 mph4.5 kmh 29.53 in1000.0 mb 0.00 in0.0 mm 0.00 in0.0 mm 0.00 in0.0 mm
07:16 AM 36.0°F2.2°C -169.2°F-111.8°C - Calm Calm 1.4 mph2.3 kmh 29.54 in1000.3 mb 0.00 in0.0 mm 0.00 in0.0 mm 0.00 in0.0 mm
07:31 AM 36.0°F2.2°C -169.2°F-111.8°C - 1.4 mph N2.3 kmh N 3.4 mph5.5 kmh 29.54 in1000.3 mb 0.00 in0.0 mm 0.00 in0.0 mm 0.00 in0.0 mm
07:46 AM 36.0°F2.2°C -169.2°F-111.8°C - 1.4 mph N2.3 kmh N 2.0 mph3.2 kmh 29.55 in1000.7 mb 0.00 in0.0 mm 0.00 in0.0 mm 0.00 in0.0 mm
08:01 AM 36.1°F2.3°C -169.2°F-111.8°C - Calm Calm 1.4 mph2.3 kmh 29.55 in1000.7 mb 0.00 in0.0 mm 0.00 in0.0 mm 0.00 in0.0 mm
08:16 AM 36.1°F2.3°C -169.2°F-111.8°C - 0.6 mph N1.0 kmh N 1.4 mph2.3 kmh 29.55 in1000.7 mb 0.00 in0.0 mm 0.00 in0.0 mm 0.00 in0.0 mm
08:31 AM 36.5°F2.5°C -169.2°F-111.8°C - Calm Calm 2.0 mph3.2 kmh 29.56 in1001.0 mb 0.00 in0.0 mm 0.00 in0.0 mm 0.00 in0.0 mm
08:46 AM 37.2°F2.9°C -169.1°F-111.7°C - 0.6 mph N1.0 kmh N 2.8 mph4.5 kmh 29.56 in1001.0 mb 0.00 in0.0 mm 0.00 in0.0 mm 0.00 in0.0 mm
09:01 AM 37.8°F3.2°C -169.0°F-111.7°C - Calm Calm 0.6 mph1.0 kmh 29.57 in1001.4 mb 0.00 in0.0 mm 0.00 in0.0 mm 0.00 in0.0 mm
09:16 AM 37.4°F3.0°C -169.1°F-111.7°C - Calm Calm 2.0 mph3.2 kmh 29.57 in1001.4 mb 0.00 in0.0 mm 0.00 in0.0 mm 0.00 in0.0 mm
09:31 AM 37.0°F2.8°C -169.1°F-111.7°C - Calm Calm 1.4 mph2.3 kmh 29.58 in1001.7 mb 0.00 in0.0 mm 0.00 in0.0 mm 0.00 in0.0 mm
09:46 AM 36.9°F2.7°C -169.1°F-111.7°C - Calm Calm 0.6 mph1.0 kmh 29.59 in1002.0 mb 0.00 in0.0 mm 0.00 in0.0 mm 0.00 in0.0 mm
10:01 AM 37.4°F3.0°C -169.1°F-111.7°C - Calm Calm -- 29.59 in1002.0 mb 0.00 in0.0 mm 0.00 in0.0 mm 0.00 in0.0 mm
10:16 AM 37.8°F3.2°C -169.0°F-111.7°C - 0.6 mph N1.0 kmh N 1.4 mph2.3 kmh 29.60 in1002.4 mb 0.00 in0.0 mm 0.00 in0.0 mm 0.00 in0.0 mm
10:31 AM 38.5°F3.6°C -169.0°F-111.7°C - Calm Calm 1.4 mph2.3 kmh 29.60 in1002.4 mb 0.00 in0.0 mm 0.00 in0.0 mm 0.00 in0.0 mm
10:46 AM 38.8°F3.8°C -168.9°F-111.6°C - Calm Calm 0.6 mph1.0 kmh 29.60 in1002.4 mb 0.00 in0.0 mm 0.00 in0.0 mm 0.00 in0.0 mm
11:01 AM 39.2°F4.0°C -168.9°F-111.6°C - Calm Calm 1.4 mph2.3 kmh 29.60 in1002.4 mb 0.00 in0.0 mm 0.00 in0.0 mm 0.00 in0.0 mm
11:16 AM 39.9°F4.4°C -168.8°F-111.6°C - Calm Calm 0.6 mph1.0 kmh 29.60 in1002.4 mb 0.00 in0.0 mm 0.00 in0.0 mm 0.00 in0.0 mm
11:31 AM 39.4°F4.1°C -168.9°F-111.6°C - Calm Calm 1.4 mph2.3 kmh 29.60 in1002.4 mb 0.00 in0.0 mm 0.00 in0.0 mm 0.00 in0.0 mm
11:46 AM 38.8°F3.8°C -168.9°F-111.6°C - 0.6 mph N1.0 kmh N 2.0 mph3.2 kmh 29.60 in1002.4 mb 0.00 in0.0 mm 0.00 in0.0 mm 0.00 in0.0 mm
12:01 PM 39.2°F4.0°C -168.9°F-111.6°C - 0.6 mph N1.0 kmh N 2.0 mph3.2 kmh 29.61 in1002.7 mb 0.00 in0.0 mm 0.00 in0.0 mm 0.00 in0.0 mm
12:16 PM 39.4°F4.1°C -168.9°F-111.6°C - Calm Calm 2.0 mph3.2 kmh 29.61 in1002.7 mb 0.00 in0.0 mm 0.00 in0.0 mm 0.00 in0.0 mm
12:31 PM 39.9°F4.4°C -168.8°F-111.6°C - Calm Calm 0.6 mph1.0 kmh 29.61 in1002.7 mb 0.00 in0.0 mm 0.00 in0.0 mm 0.00 in0.0 mm
12:46 PM 40.3°F4.6°C -168.8°F-111.6°C - Calm Calm 0.6 mph1.0 kmh 29.62 in1003.0 mb 0.00 in0.0 mm 0.00 in0.0 mm 0.00 in0.0 mm
01:01 PM 39.7°F4.3°C -168.8°F-111.6°C - Calm Calm 1.4 mph2.3 kmh 29.61 in1002.7 mb 0.00 in0.0 mm 0.00 in0.0 mm 0.00 in0.0 mm
01:16 PM 39.0°F3.9°C -168.9°F-111.6°C - Calm Calm 0.6 mph1.0 kmh 29.62 in1003.0 mb 0.00 in0.0 mm 0.00 in0.0 mm 0.00 in0.0 mm
01:31 PM 38.8°F3.8°C -168.9°F-111.6°C - Calm Calm -- 29.62 in1003.0 mb 0.00 in0.0 mm 0.00 in0.0 mm 0.00 in0.0 mm
01:46 PM 38.8°F3.8°C -168.9°F-111.6°C - Calm Calm -- 29.62 in1003.0 mb 0.00 in0.0 mm 0.00 in0.0 mm 0.00 in0.0 mm
02:01 PM 39.2°F4.0°C -168.9°F-111.6°C - Calm Calm 1.4 mph2.3 kmh 29.63 in1003.4 mb 0.00 in0.0 mm 0.00 in0.0 mm 0.00 in0.0 mm
02:16 PM 39.2°F4.0°C -168.9°F-111.6°C - Calm Calm -- 29.63 in1003.4 mb 0.00 in0.0 mm 0.00 in0.0 mm 0.00 in0.0 mm
02:31 PM 39.4°F4.1°C -168.9°F-111.6°C - Calm Calm 0.6 mph1.0 kmh 29.64 in1003.7 mb 0.00 in0.0 mm 0.00 in0.0 mm 0.00 in0.0 mm
02:46 PM 40.3°F4.6°C -168.8°F-111.6°C - Calm Calm 0.6 mph1.0 kmh 29.64 in1003.7 mb 0.00 in0.0 mm 0.00 in0.0 mm 0.00 in0.0 mm
03:01 PM 39.4°F4.1°C -168.9°F-111.6°C - Calm Calm 0.6 mph1.0 kmh 29.64 in1003.7 mb 0.00 in0.0 mm 0.00 in0.0 mm 0.00 in0.0 mm
03:16 PM 38.7°F3.7°C -168.9°F-111.6°C - Calm Calm 0.6 mph1.0 kmh 29.65 in1004.1 mb 0.00 in0.0 mm 0.00 in0.0 mm 0.00 in0.0 mm
03:31 PM 38.3°F3.5°C -169.0°F-111.7°C - Calm Calm 0.6 mph1.0 kmh 29.65 in1004.1 mb 0.00 in0.0 mm 0.00 in0.0 mm 0.00 in0.0 mm
03:46 PM 37.9°F3.3°C -169.0°F-111.7°C - Calm Calm -- 29.66 in1004.4 mb 0.00 in0.0 mm 0.00 in0.0 mm 0.00 in0.0 mm
04:01 PM 38.1°F3.4°C -169.0°F-111.7°C - Calm Calm -- 29.66 in1004.4 mb 0.00 in0.0 mm 0.00 in0.0 mm 0.00 in0.0 mm
04:16 PM 37.8°F3.2°C -169.0°F-111.7°C - Calm Calm 0.6 mph1.0 kmh 29.67 in1004.7 mb 0.00 in0.0 mm 0.00 in0.0 mm 0.00 in0.0 mm
04:31 PM 37.8°F3.2°C -169.0°F-111.7°C - Calm Calm -- 29.67 in1004.7 mb 0.00 in0.0 mm 0.00 in0.0 mm 0.00 in0.0 mm
04:46 PM 37.4°F3.0°C -169.1°F-111.7°C - Calm Calm 0.6 mph1.0 kmh 29.67 in1004.7 mb 0.00 in0.0 mm 0.00 in0.0 mm 0.00 in0.0 mm
05:01 PM 37.4°F3.0°C -169.1°F-111.7°C - Calm Calm -- 29.68 in1005.1 mb 0.00 in0.0 mm 0.00 in0.0 mm 0.00 in0.0 mm
05:16 PM 37.2°F2.9°C -169.1°F-111.7°C - Calm Calm -- 29.68 in1005.1 mb 0.00 in0.0 mm 0.00 in0.0 mm 0.00 in0.0 mm
05:31 PM 37.0°F2.8°C -169.1°F-111.7°C - Calm Calm 1.4 mph2.3 kmh 29.68 in1005.1 mb 0.00 in0.0 mm 0.00 in0.0 mm 0.00 in0.0 mm
05:46 PM 36.7°F2.6°C -169.1°F-111.7°C - Calm Calm 1.4 mph2.3 kmh 29.69 in1005.4 mb 0.00 in0.0 mm 0.00 in0.0 mm 0.00 in0.0 mm
06:01 PM 36.1°F2.3°C -169.2°F-111.8°C - Calm Calm 0.6 mph1.0 kmh 29.70 in1005.8 mb 0.00 in0.0 mm 0.00 in0.0 mm 0.00 in0.0 mm
06:16 PM 36.1°F2.3°C -169.2°F-111.8°C - Calm Calm -- 29.70 in1005.8 mb 0.00 in0.0 mm 0.00 in0.0 mm 0.00 in0.0 mm
06:31 PM 36.1°F2.3°C -169.2°F-111.8°C - Calm Calm -- 29.70 in1005.8 mb 0.00 in0.0 mm 0.00 in0.0 mm 0.00 in0.0 mm
06:46 PM 36.3°F2.4°C -169.2°F-111.8°C - Calm Calm -- 29.71 in1006.1 mb 0.00 in0.0 mm 0.00 in0.0 mm 0.00 in0.0 mm
07:01 PM 36.5°F2.5°C -169.2°F-111.8°C - Calm Calm -- 29.72 in1006.4 mb 0.00 in0.0 mm 0.00 in0.0 mm 0.00 in0.0 mm
07:16 PM 36.3°F2.4°C -169.2°F-111.8°C - Calm Calm -- 29.72 in1006.4 mb 0.00 in0.0 mm 0.00 in0.0 mm 0.00 in0.0 mm
07:31 PM 35.8°F2.1°C -169.2°F-111.8°C - Calm Calm -- 29.73 in1006.8 mb 0.00 in0.0 mm 0.00 in0.0 mm 0.00 in0.0 mm
07:46 PM 35.4°F1.9°C -169.3°F-111.8°C - Calm Calm -- 29.73 in1006.8 mb 0.00 in0.0 mm 0.00 in0.0 mm 0.00 in0.0 mm
08:01 PM 35.1°F1.7°C -169.3°F-111.8°C - Calm Calm -- 29.73 in1006.8 mb 0.00 in0.0 mm 0.00 in0.0 mm 0.00 in0.0 mm
08:17 PM 35.2°F1.8°C -169.3°F-111.8°C - Calm Calm -- 29.73 in1006.8 mb 0.00 in0.0 mm 0.00 in0.0 mm 0.00 in0.0 mm
08:33 PM 34.7°F1.5°C -169.3°F-111.8°C - Calm Calm 0.6 mph1.0 kmh 29.74 in1007.1 mb 0.00 in0.0 mm 0.00 in0.0 mm 0.00 in0.0 mm
08:49 PM 34.2°F1.2°C -169.4°F-111.9°C - Calm Calm -- 29.74 in1007.1 mb 0.00 in0.0 mm 0.00 in0.0 mm 0.00 in0.0 mm
09:05 PM 34.0°F1.1°C -169.4°F-111.9°C - Calm Calm -- 29.74 in1007.1 mb 0.00 in0.0 mm 0.00 in0.0 mm 0.00 in0.0 mm
09:15 PM 34.0°F1.1°C -169.4°F-111.9°C - Calm Calm -- 29.74 in1007.1 mb 0.00 in0.0 mm 0.00 in0.0 mm 0.00 in0.0 mm
09:31 PM 33.3°F0.7°C -169.5°F-111.9°C - Calm Calm -- 29.75 in1007.5 mb 0.00 in0.0 mm 0.00 in0.0 mm 0.00 in0.0 mm
09:47 PM 33.1°F0.6°C -169.5°F-111.9°C - Calm Calm -- 29.75 in1007.5 mb 0.00 in0.0 mm 0.00 in0.0 mm 0.00 in0.0 mm
10:03 PM 32.9°F0.5°C -169.5°F-111.9°C - Calm Calm -- 29.75 in1007.5 mb 0.00 in0.0 mm 0.00 in0.0 mm 0.00 in0.0 mm
10:19 PM 32.9°F0.5°C -169.5°F-111.9°C - Calm Calm -- 29.76 in1007.8 mb 0.00 in0.0 mm 0.00 in0.0 mm 0.00 in0.0 mm
10:35 PM 33.3°F0.7°C -169.5°F-111.9°C - Calm Calm -- 29.76 in1007.8 mb 0.00 in0.0 mm 0.00 in0.0 mm 0.00 in0.0 mm
10:46 PM 33.3°F0.7°C -169.5°F-111.9°C - Calm Calm -- 29.77 in1008.1 mb 0.00 in0.0 mm 0.00 in0.0 mm 0.00 in0.0 mm
11:02 PM 33.6°F0.9°C -169.4°F-111.9°C - Calm Calm -- 29.77 in1008.1 mb 0.00 in0.0 mm 0.00 in0.0 mm 0.00 in0.0 mm
11:18 PM 33.8°F1.0°C -169.4°F-111.9°C - Calm Calm -- 29.77 in1008.1 mb 0.00 in0.0 mm 0.00 in0.0 mm 0.00 in0.0 mm
11:34 PM 34.0°F1.1°C -169.4°F-111.9°C - Calm Calm -- 29.77 in1008.1 mb 0.00 in0.0 mm 0.00 in0.0 mm 0.00 in0.0 mm
11:50 PM 34.0°F1.1°C -169.4°F-111.9°C - Calm Calm -- 29.77 in1008.1 mb 0.00 in0.0 mm 0.00 in0.0 mm 0.00 in0.0 mm